createdAt,value
2022-12-08T00:00:46.931Z,101193.82
2022-12-08T00:03:17.276Z,101194.80
2022-12-08T00:06:07.497Z,101189.81
2022-12-08T00:08:55.468Z,101186.01
2022-12-08T00:11:25.204Z,101186.47
2022-12-08T00:13:55.677Z,101181.23
2022-12-08T00:16:25.597Z,101179.08
2022-12-08T00:18:55.321Z,101174.03
2022-12-08T00:21:25.055Z,101169.01
2022-12-08T00:23:56.911Z,101163.88
2022-12-08T00:26:26.681Z,101158.25
2022-12-08T00:28:56.871Z,101158.14
2022-12-08T00:31:27.357Z,101165.64
2022-12-08T00:33:56.811Z,101149.69
2022-12-08T00:36:26.414Z,101148.80
2022-12-08T00:38:56.044Z,101151.56
2022-12-08T00:41:45.380Z,101142.72
2022-12-08T00:44:19.771Z,101139.45
2022-12-08T00:46:50.032Z,101126.51
2022-12-08T00:49:20.432Z,101136.25
2022-12-08T00:51:50.531Z,101129.70
2022-12-08T00:54:20.403Z,101125.34
2022-12-08T00:56:50.261Z,101120.72
2022-12-08T00:59:20.432Z,101117.28
2022-12-08T01:01:50.298Z,101121.28
2022-12-08T01:04:20.979Z,101108.83
2022-12-08T01:06:51.180Z,101107.71
2022-12-08T01:09:21.450Z,101106.25
2022-12-08T01:11:51.492Z,101106.02
2022-12-08T01:14:21.594Z,101102.66
2022-12-08T01:16:51.360Z,101107.71
2022-12-08T01:21:49.988Z,101092.08
2022-12-08T01:24:22.154Z,101092.57
2022-12-08T01:26:52.522Z,101094.14
2022-12-08T01:29:22.612Z,101096.17
2022-12-08T01:31:52.383Z,101100.62
2022-12-08T01:34:22.370Z,101095.48
2022-12-08T01:36:52.112Z,101093.23
2022-12-08T01:39:22.192Z,101093.14
2022-12-08T01:41:52.207Z,101092.69
2022-12-08T01:44:25.264Z,101091.13
2022-12-08T01:46:55.930Z,101091.61
2022-12-08T01:49:32.010Z,101087.06
2022-12-08T01:52:07.641Z,101089.32
2022-12-08T01:54:40.100Z,101086.72
2022-12-08T01:57:24.747Z,101083.34
2022-12-08T01:59:57.825Z,101075.47
2022-12-08T02:02:30.641Z,101064.64
2022-12-08T02:05:01.265Z,101074.01
2022-12-08T02:07:32.536Z,101064.88
2022-12-08T02:10:03.660Z,101068.77
2022-12-08T02:12:33.737Z,101061.36
2022-12-08T02:15:05.453Z,101058.87
2022-12-08T02:17:40.721Z,101062.53
2022-12-08T02:20:33.934Z,101051.71
2022-12-08T02:23:18.575Z,101046.77
2022-12-08T02:25:59.709Z,101046.77
2022-12-08T02:28:50.512Z,101042.05
2022-12-08T02:31:32.149Z,101040.02
2022-12-08T02:34:22.905Z,101034.45
2022-12-08T02:36:55.672Z,101028.02
2022-12-08T02:39:46.782Z,101024.09
2022-12-08T02:42:47.256Z,101029.66
2022-12-08T02:45:25.171Z,101019.38
2022-12-08T02:47:55.752Z,101023.22
2022-12-08T02:50:25.486Z,101022.88
2022-12-08T02:52:55.861Z,101017.42
2022-12-08T02:55:31.462Z,101018.57
2022-12-08T02:58:06.981Z,101018.83
2022-12-08T03:00:54.483Z,101024.99
2022-12-08T03:03:47.765Z,101019.50
2022-12-08T03:06:42.103Z,101018.57
2022-12-08T03:09:33.223Z,101015.58
2022-12-08T03:12:21.088Z,101006.09
2022-12-08T03:14:54.200Z,100996.84
2022-12-08T03:17:27.103Z,101000.73
2022-12-08T03:19:59.146Z,101001.07
2022-12-08T03:22:30.076Z,100992.13
2022-12-08T03:24:59.976Z,100998.62
2022-12-08T03:27:31.932Z,100995.33
2022-12-08T03:30:02.944Z,100989.92
2022-12-08T03:32:47.706Z,100980.88
2022-12-08T03:35:20.799Z,100979.08
2022-12-08T03:37:50.612Z,100979.19
2022-12-08T03:40:21.961Z,100984.31
2022-12-08T03:42:51.691Z,100984.31
2022-12-08T03:45:21.761Z,100981.11
2022-12-08T03:47:52.463Z,100976.17
2022-12-08T03:50:22.307Z,100970.47
2022-12-08T03:52:52.202Z,100972.28
2022-12-08T03:55:21.924Z,100969.33
2022-12-08T03:57:51.936Z,100961.59
2022-12-08T04:00:21.791Z,100961.59
2022-12-08T04:02:51.582Z,100965.45
2022-12-08T04:05:21.225Z,100965.98
2022-12-08T04:07:50.980Z,100952.17
2022-12-08T04:10:20.755Z,100949.37
2022-12-08T04:12:50.644Z,100939.23
2022-12-08T04:15:20.438Z,100940.76
2022-12-08T04:17:50.469Z,100936.03
2022-12-08T04:20:20.075Z,100937.38
2022-12-08T04:22:49.785Z,100930.50
2022-12-08T04:25:19.571Z,100928.09
2022-12-08T04:27:49.282Z,100924.18
2022-12-08T04:30:20.966Z,100924.18
2022-12-08T04:32:50.702Z,100917.66
2022-12-08T04:35:20.420Z,100924.72
2022-12-08T04:37:50.034Z,100926.75
2022-12-08T04:40:20.807Z,100930.09
2022-12-08T04:42:50.600Z,100929.45
2022-12-08T04:45:20.142Z,100929.98
2022-12-08T04:47:49.942Z,100928.36
2022-12-08T04:50:19.503Z,100933.16
2022-12-08T04:52:49.248Z,100930.77
2022-12-08T04:55:19.404Z,100925.09
2022-12-08T04:57:49.124Z,100925.63
2022-12-08T05:00:19.791Z,100928.45
2022-12-08T05:02:49.674Z,100927.05
2022-12-08T05:05:19.421Z,100923.00
2022-12-08T05:07:49.260Z,100914.09
2022-12-08T05:10:18.824Z,100910.84
2022-12-08T05:12:48.543Z,100906.59
2022-12-08T05:15:18.404Z,100911.48
2022-12-08T05:17:48.109Z,100919.41
2022-12-08T05:20:17.617Z,100912.46
2022-12-08T05:22:47.316Z,100915.80
2022-12-08T05:25:17.100Z,100917.09
2022-12-08T05:27:46.879Z,100913.09
2022-12-08T05:30:18.644Z,100914.86
2022-12-08T05:32:48.348Z,100911.61
2022-12-08T05:35:18.233Z,100913.80
2022-12-08T05:37:48.232Z,100903.01
2022-12-08T05:40:19.277Z,100903.01
2022-12-08T05:42:48.987Z,100911.11
2022-12-08T05:45:19.064Z,100906.93
2022-12-08T05:47:49.164Z,100902.47
2022-12-08T05:50:19.379Z,100908.54
2022-12-08T05:52:49.174Z,100896.12
2022-12-08T05:55:18.956Z,100890.73
2022-12-08T05:57:48.667Z,100894.81
2022-12-08T06:00:19.761Z,100890.77
2022-12-08T06:02:49.958Z,100889.66
2022-12-08T06:05:19.462Z,100889.66
2022-12-08T06:07:49.239Z,100892.62
2022-12-08T06:10:19.413Z,100890.82
2022-12-08T06:12:49.131Z,100895.45
2022-12-08T06:18:01.227Z,100882.97
2022-12-08T06:20:30.953Z,100883.39
2022-12-08T06:23:00.737Z,100882.18
2022-12-08T06:25:30.483Z,100884.02
2022-12-08T06:28:00.214Z,100881.48
2022-12-08T06:30:29.943Z,100879.45
2022-12-08T06:33:00.040Z,100883.30
2022-12-08T06:35:29.836Z,100882.97
2022-12-08T06:37:59.553Z,100893.05
2022-12-08T06:40:29.296Z,100913.98
2022-12-08T06:42:59.296Z,100877.58
2022-12-08T06:45:28.797Z,100887.31
2022-12-08T06:47:58.506Z,100887.87
2022-12-08T06:50:28.632Z,100885.80
2022-12-08T06:53:05.213Z,100889.51
2022-12-08T06:58:02.262Z,100894.74
2022-12-08T07:00:31.690Z,100883.67
2022-12-08T07:03:01.479Z,100891.80
2022-12-08T07:05:31.207Z,100891.30
2022-12-08T07:08:01.021Z,100889.41
2022-12-08T07:10:30.755Z,100888.96
2022-12-08T07:13:00.492Z,100888.96
2022-12-08T07:15:30.297Z,100898.08
2022-12-08T07:18:00.585Z,100900.78
2022-12-08T07:20:30.215Z,100903.65
2022-12-08T07:23:00.003Z,100895.77
2022-12-08T07:25:29.725Z,100903.81
2022-12-08T07:27:59.443Z,100911.89
2022-12-08T07:30:29.443Z,100910.03
2022-12-08T07:32:59.267Z,100909.90
2022-12-08T07:35:28.997Z,100913.66
2022-12-08T07:37:59.005Z,100912.77
2022-12-08T07:40:28.654Z,100908.94
2022-12-08T07:42:58.384Z,100908.37
2022-12-08T07:45:31.409Z,100901.02
2022-12-08T07:47:59.624Z,100902.88
2022-12-08T07:50:29.109Z,100906.55
2022-12-08T07:52:58.849Z,100900.95
2022-12-08T07:55:28.710Z,100898.59
2022-12-08T07:57:58.440Z,100892.72
2022-12-08T08:00:28.256Z,100900.44
2022-12-08T08:02:58.129Z,100899.67
2022-12-08T08:05:27.871Z,100900.44
2022-12-08T08:07:57.715Z,100895.25
2022-12-08T08:10:27.667Z,100889.24
2022-12-08T08:13:01.430Z,100892.38
2022-12-08T08:15:31.426Z,100888.88
2022-12-08T08:18:01.263Z,100887.32
2022-12-08T08:20:30.747Z,100881.14
2022-12-08T08:23:00.482Z,100895.35
2022-12-08T08:25:30.209Z,100900.75
2022-12-08T08:28:00.232Z,100904.87
2022-12-08T08:30:29.658Z,100898.22
2022-12-08T08:32:59.380Z,100898.39
2022-12-08T08:35:29.207Z,100905.62
2022-12-08T08:37:58.702Z,100912.16
2022-12-08T08:40:28.600Z,100913.04
2022-12-08T08:42:59.837Z,100903.98
2022-12-08T08:45:29.831Z,100908.36
2022-12-08T08:47:59.572Z,100902.03
2022-12-08T08:50:32.951Z,100906.22
2022-12-08T08:53:00.598Z,100914.56
2022-12-08T08:55:30.312Z,100904.94
2022-12-08T08:57:59.776Z,100904.64
2022-12-08T09:00:29.423Z,100903.66
2022-12-08T09:02:59.122Z,100903.45
2022-12-08T09:05:28.841Z,100907.14
2022-12-08T09:07:58.791Z,100899.38
2022-12-08T09:10:29.068Z,100902.55
2022-12-08T09:12:59.086Z,100901.66
2022-12-08T09:15:28.799Z,100895.69
2022-12-08T09:17:58.606Z,100898.05
2022-12-08T09:20:28.322Z,100906.97
2022-12-08T09:22:58.046Z,100911.31
2022-12-08T09:25:28.646Z,100903.17
2022-12-08T09:27:58.357Z,100901.84
2022-12-08T09:30:27.914Z,100901.84
2022-12-08T09:32:57.705Z,100905.67
2022-12-08T09:35:27.413Z,100905.67
2022-12-08T09:37:57.225Z,100905.00
2022-12-08T09:40:27.879Z,100911.64
2022-12-08T09:43:03.166Z,100907.09
2022-12-08T09:45:37.261Z,100907.09
2022-12-08T09:48:20.028Z,100907.65
2022-12-08T09:50:57.668Z,100914.91
2022-12-08T09:53:42.073Z,100914.91
2022-12-08T09:56:20.231Z,100913.20
2022-12-08T09:59:01.784Z,100908.95
2022-12-08T10:01:34.358Z,100915.22
2022-12-08T10:04:12.192Z,100911.32
2022-12-08T10:06:47.756Z,100911.66
2022-12-08T10:09:39.537Z,100904.42
2022-12-08T10:12:47.745Z,100905.79
2022-12-08T10:15:44.188Z,100898.27
2022-12-08T10:18:18.996Z,100899.84
2022-12-08T10:20:50.759Z,100890.73
2022-12-08T10:23:26.070Z,100890.08
2022-12-08T10:26:01.702Z,100886.79
2022-12-08T10:28:32.211Z,100884.13
2022-12-08T10:31:02.298Z,100877.55
2022-12-08T10:33:34.867Z,100882.79
2022-12-08T10:36:06.077Z,100880.92
2022-12-08T10:38:40.583Z,100876.20
2022-12-08T10:41:17.486Z,100872.00
2022-12-08T10:43:53.142Z,100878.77
2022-12-08T10:46:27.428Z,100869.59
2022-12-08T10:49:08.921Z,100871.66
2022-12-08T10:51:43.746Z,100876.88
2022-12-08T10:54:32.151Z,100874.36
2022-12-08T10:57:01.864Z,100871.64
2022-12-08T10:59:34.610Z,100871.14
2022-12-08T11:02:09.367Z,100871.14
2022-12-08T11:04:39.475Z,100862.16
2022-12-08T11:07:11.608Z,100866.73
2022-12-08T11:09:47.941Z,100869.28
2022-12-08T11:12:22.396Z,100869.61
2022-12-08T11:14:59.888Z,100869.80
2022-12-08T11:17:31.949Z,100862.02
2022-12-08T11:20:13.366Z,100862.02
2022-12-08T11:22:45.188Z,100864.73
2022-12-08T11:25:20.437Z,100853.40
2022-12-08T11:27:52.670Z,100857.61
2022-12-08T11:30:24.827Z,100849.83
2022-12-08T11:33:06.229Z,100849.83
2022-12-08T11:35:41.461Z,100842.21
2022-12-08T11:38:22.300Z,100844.77
2022-12-08T11:41:03.148Z,100844.77
2022-12-08T11:43:51.449Z,100840.03
2022-12-08T11:46:29.988Z,100841.75
2022-12-08T11:49:08.788Z,100842.59
2022-12-08T11:51:47.044Z,100840.06
2022-12-08T11:54:34.610Z,100837.36
2022-12-08T11:57:06.792Z,100839.87
2022-12-08T11:59:39.683Z,100839.22
2022-12-08T12:02:21.111Z,100842.77
2022-12-08T12:04:56.782Z,100842.75
2022-12-08T12:07:46.480Z,100839.53
2022-12-08T12:10:22.307Z,100847.83
2022-12-08T12:13:15.777Z,100841.75
2022-12-08T12:16:03.787Z,100832.28
2022-12-08T12:18:43.739Z,100830.05
2022-12-08T12:21:25.129Z,100832.58
2022-12-08T12:24:00.375Z,100822.57
2022-12-08T12:26:32.755Z,100822.92
2022-12-08T12:29:05.512Z,100825.17
2022-12-08T12:31:38.412Z,100823.13
2022-12-08T12:34:24.665Z,100815.05
2022-12-08T12:36:59.861Z,100819.27
2022-12-08T12:39:32.289Z,100813.68
2022-12-08T12:42:04.746Z,100817.41
2022-12-08T12:44:37.510Z,100821.62
2022-12-08T12:47:10.294Z,100820.47
2022-12-08T12:49:46.091Z,100808.26
2022-12-08T12:52:21.490Z,100808.27
2022-12-08T12:54:54.550Z,100803.19
2022-12-08T12:57:36.122Z,100805.58
2022-12-08T13:00:11.080Z,100800.83
2022-12-08T13:02:49.762Z,100796.59
2022-12-08T13:05:31.534Z,100788.59
2022-12-08T13:08:10.489Z,100782.87
2022-12-08T13:10:42.954Z,100793.06
2022-12-08T13:13:17.365Z,100793.26
2022-12-08T13:15:53.003Z,100785.28
2022-12-08T13:18:40.386Z,100783.61
2022-12-08T13:21:15.365Z,100781.41
2022-12-08T13:23:53.928Z,100779.34
2022-12-08T13:26:26.717Z,100774.14
2022-12-08T13:29:05.399Z,100769.05
2022-12-08T13:31:49.785Z,100759.00
2022-12-08T13:34:47.974Z,100762.56
2022-12-08T13:37:26.856Z,100761.89
2022-12-08T13:40:08.725Z,100761.71
2022-12-08T13:42:50.336Z,100762.27
2022-12-08T13:45:59.002Z,100764.62
2022-12-08T13:58:33.174Z,100755.81
2022-12-08T14:01:17.949Z,100756.86
2022-12-08T14:04:30.857Z,100758.73
2022-12-08T14:06:38.830Z,100761.27
2022-12-08T14:09:15.757Z,100760.75
2022-12-08T14:11:48.777Z,100760.44
2022-12-08T14:15:00.566Z,100755.66
2022-12-08T14:17:05.467Z,100754.17
2022-12-08T14:19:36.607Z,100749.77
2022-12-08T14:22:12.392Z,100752.36
2022-12-08T14:24:47.893Z,100758.62
2022-12-08T14:27:23.585Z,100766.72
2022-12-08T14:29:59.051Z,100767.06
2022-12-08T14:32:34.320Z,100757.60
2022-12-08T14:35:09.305Z,100755.09
2022-12-08T14:37:50.736Z,100746.77
2022-12-08T14:40:34.839Z,100745.77
2022-12-08T14:43:13.729Z,100755.60
2022-12-08T14:45:48.959Z,100760.65
2022-12-08T14:48:27.178Z,100766.23
2022-12-08T14:51:01.627Z,100768.09
2022-12-08T14:53:40.592Z,100768.59
2022-12-08T14:56:22.079Z,100774.47
2022-12-08T14:59:11.151Z,100770.09
2022-12-08T15:01:42.814Z,100777.18
2022-12-08T15:04:18.784Z,100781.44
2022-12-08T15:07:12.277Z,100779.72
2022-12-08T15:09:48.845Z,100781.06
2022-12-08T15:12:27.337Z,100777.19
2022-12-08T15:15:17.613Z,100778.34
2022-12-08T15:18:15.458Z,100769.24
2022-12-08T15:20:53.786Z,100766.37
2022-12-08T15:23:31.135Z,100774.14
2022-12-08T15:26:01.212Z,100768.37
2022-12-08T15:28:31.297Z,100779.45
2022-12-08T15:31:01.118Z,100779.11
2022-12-08T15:33:30.886Z,100779.81
2022-12-08T15:36:00.618Z,100782.14
2022-12-08T15:38:30.547Z,100786.16
2022-12-08T15:41:00.260Z,100781.95
2022-12-08T15:43:31.423Z,100775.00
2022-12-08T15:46:01.236Z,100774.83
2022-12-08T15:48:31.487Z,100780.70
2022-12-08T15:51:01.275Z,100775.59
2022-12-08T15:53:31.012Z,100793.77
2022-12-08T15:56:26.883Z,100780.36
2022-12-08T15:58:54.064Z,100785.28
2022-12-08T16:01:08.473Z,100791.06
2022-12-08T16:07:26.886Z,100791.36
2022-12-08T16:08:56.339Z,100788.45
2022-12-08T16:14:48.730Z,100785.12
2022-12-08T16:16:43.288Z,100790.44
2022-12-08T16:19:15.989Z,100782.69
2022-12-08T16:22:30.141Z,100782.69
2022-12-08T16:24:16.803Z,100779.65
2022-12-08T16:27:58.551Z,100783.52
2022-12-08T16:29:22.538Z,100778.81
2022-12-08T16:31:52.467Z,100776.23
2022-12-08T16:34:22.050Z,100765.19
2022-12-08T16:36:52.355Z,100769.87
2022-12-08T16:39:22.197Z,100779.78
2022-12-08T16:42:09.576Z,100779.78
2022-12-08T16:44:41.988Z,100773.48
2022-12-08T16:47:12.256Z,100777.70
2022-12-08T16:49:42.285Z,100770.75
2022-12-08T16:52:12.153Z,100777.37
2022-12-08T16:54:41.880Z,100778.11
2022-12-08T16:57:12.192Z,100780.97
2022-12-08T16:59:42.091Z,100784.89
2022-12-08T17:02:16.291Z,100786.42
2022-12-08T17:04:43.616Z,100781.62
2022-12-08T17:07:13.472Z,100781.62
2022-12-08T17:09:43.475Z,100778.47
2022-12-08T17:12:12.960Z,100774.92
2022-12-08T17:14:42.699Z,100774.92
2022-12-08T17:17:12.507Z,100773.58
2022-12-08T17:19:42.553Z,100774.16
2022-12-08T17:22:11.988Z,100769.23
2022-12-08T17:24:41.724Z,100766.36
2022-12-08T17:27:11.468Z,100765.95
2022-12-08T17:29:41.207Z,100768.59
2022-12-08T17:32:11.665Z,100763.45
2022-12-08T17:34:41.477Z,100763.45
2022-12-08T17:37:11.208Z,100760.53
2022-12-08T17:39:41.108Z,100762.66
2022-12-08T17:42:11.460Z,100760.67
2022-12-08T17:44:41.480Z,100750.69
2022-12-08T17:47:11.329Z,100756.79
2022-12-08T17:49:41.045Z,100763.16
2022-12-08T17:52:12.437Z,100758.95
2022-12-08T17:54:42.180Z,100758.67
2022-12-08T17:57:11.909Z,100766.09
2022-12-08T17:59:41.816Z,100766.09
2022-12-08T18:02:12.487Z,100761.17
2022-12-08T18:04:42.561Z,100753.22
2022-12-08T18:07:12.617Z,100772.98
2022-12-08T18:09:42.669Z,100763.20
2022-12-08T18:12:12.106Z,100754.30
2022-12-08T18:14:41.859Z,100758.98
2022-12-08T18:17:11.652Z,100760.02
2022-12-08T18:19:41.894Z,100759.41
2022-12-08T18:22:12.225Z,100761.38
2022-12-08T18:24:42.339Z,100767.98
2022-12-08T18:27:12.078Z,100768.82
2022-12-08T18:29:41.826Z,100761.81
2022-12-08T18:32:12.376Z,100768.89
2022-12-08T18:34:42.125Z,100767.78
2022-12-08T18:37:11.876Z,100769.02
2022-12-08T18:39:41.883Z,100762.24
2022-12-08T18:42:23.651Z,100759.73
2022-12-08T18:45:06.109Z,100762.89
2022-12-08T18:47:40.620Z,100764.10
2022-12-08T18:50:12.592Z,100753.18
2022-12-08T18:52:42.304Z,100754.67
2022-12-08T18:55:12.139Z,100758.89
2022-12-08T18:57:43.745Z,100767.61
2022-12-08T19:00:17.440Z,100768.82
2022-12-08T19:02:47.570Z,100762.27
2022-12-08T19:05:17.423Z,100760.05
2022-12-08T19:07:47.395Z,100761.51
2022-12-08T19:10:17.443Z,100759.19
2022-12-08T19:12:48.698Z,100757.16
2022-12-08T19:15:18.599Z,100756.11
2022-12-08T19:17:48.708Z,100756.48
2022-12-08T19:20:18.726Z,100759.66
2022-12-08T19:22:48.760Z,100761.00
2022-12-08T19:25:18.593Z,100758.14
2022-12-08T19:27:48.475Z,100763.70
2022-12-08T19:30:18.223Z,100767.27
2022-12-08T19:32:48.227Z,100763.84
2022-12-08T19:35:18.063Z,100763.84
2022-12-08T19:37:47.790Z,100767.98
2022-12-08T19:40:34.856Z,100765.55
2022-12-08T19:43:22.257Z,100770.20
2022-12-08T19:45:52.564Z,100773.16
2022-12-08T19:48:22.398Z,100766.53
2022-12-08T19:50:52.223Z,100768.27
2022-12-08T19:53:24.280Z,100772.15
2022-12-08T19:55:54.090Z,100775.00
2022-12-08T19:58:24.240Z,100766.41
2022-12-08T20:00:54.045Z,100766.80
2022-12-08T20:06:33.718Z,100774.41
2022-12-08T20:09:03.775Z,100772.77
2022-12-08T20:11:33.567Z,100776.93
2022-12-08T20:14:03.690Z,100776.86
2022-12-08T20:16:34.259Z,100768.47
2022-12-08T20:19:05.056Z,100764.84
2022-12-08T20:21:34.770Z,100764.84
2022-12-08T20:24:06.521Z,100769.16
2022-12-08T20:26:36.007Z,100771.77
2022-12-08T20:29:07.332Z,100784.27
2022-12-08T20:31:37.160Z,100779.00
2022-12-08T20:34:09.702Z,100778.89
2022-12-08T20:36:39.419Z,100777.12
2022-12-08T20:39:14.558Z,100775.56
2022-12-08T20:41:45.128Z,100778.59
2022-12-08T20:44:15.070Z,100777.54
2022-12-08T20:46:49.416Z,100773.53
2022-12-08T20:49:16.745Z,100777.08
2022-12-08T20:51:49.659Z,100775.00
2022-12-08T20:54:19.087Z,100770.31
2022-12-08T20:56:49.096Z,100777.29
2022-12-08T20:59:19.181Z,100777.29
2022-12-08T21:01:49.008Z,100770.54
2022-12-08T21:04:19.493Z,100777.06
2022-12-08T21:06:50.267Z,100770.98
2022-12-08T21:09:20.653Z,100775.03
2022-12-08T21:11:50.968Z,100778.07
2022-12-08T21:14:20.823Z,100778.07
2022-12-08T21:16:51.000Z,100776.52
2022-12-08T21:19:21.412Z,100780.87
2022-12-08T21:21:51.291Z,100783.47
2022-12-08T21:24:21.050Z,100781.23
2022-12-08T21:26:50.809Z,100790.89
2022-12-08T21:29:20.857Z,100782.93
2022-12-08T21:31:51.853Z,100793.92
2022-12-08T21:34:21.615Z,100793.55
2022-12-08T21:36:51.961Z,100791.11
2022-12-08T21:39:21.663Z,100784.64
2022-12-08T21:42:09.219Z,100788.49
2022-12-08T21:44:38.986Z,100782.66
2022-12-08T21:47:10.352Z,100782.66
2022-12-08T21:49:40.123Z,100784.11
2022-12-08T21:52:11.302Z,100785.28
2022-12-08T21:54:41.181Z,100785.83
2022-12-08T21:57:12.481Z,100783.36
2022-12-08T21:59:42.602Z,100782.99
2022-12-08T22:02:22.008Z,100780.63
2022-12-08T22:04:48.011Z,100784.89
2022-12-08T22:07:18.083Z,100781.53
2022-12-08T22:09:48.053Z,100785.04
2022-12-08T22:12:17.883Z,100789.13
2022-12-08T22:14:49.273Z,100792.47
2022-12-08T22:17:19.872Z,100787.09
2022-12-08T22:19:50.026Z,100785.26
2022-12-08T22:22:19.383Z,100781.86
2022-12-08T22:24:49.411Z,100782.48
2022-12-08T22:27:19.194Z,100786.42
2022-12-08T22:29:48.875Z,100787.09
2022-12-08T22:32:19.268Z,100787.28
2022-12-08T22:34:49.135Z,100784.34
2022-12-08T22:37:18.852Z,100786.56
2022-12-08T22:39:48.590Z,100789.45
2022-12-08T22:42:18.981Z,100785.38
2022-12-08T22:44:48.805Z,100782.68
2022-12-08T22:47:18.506Z,100785.52
2022-12-08T22:49:48.528Z,100780.16
2022-12-08T22:52:18.265Z,100784.70
2022-12-08T22:54:47.978Z,100778.97
2022-12-08T22:57:17.793Z,100779.62
2022-12-08T22:59:47.219Z,100778.41
2022-12-08T23:02:17.124Z,100776.75
2022-12-08T23:04:47.259Z,100776.75
2022-12-08T23:07:17.271Z,100777.53
2022-12-08T23:09:47.137Z,100779.59
2022-12-08T23:12:16.756Z,100770.28
2022-12-08T23:14:46.539Z,100777.28
2022-12-08T23:17:16.603Z,100771.06
2022-12-08T23:19:46.880Z,100769.64
2022-12-08T23:22:16.777Z,100776.44
2022-12-08T23:24:46.547Z,100776.95
2022-12-08T23:27:16.344Z,100771.36
2022-12-08T23:29:46.269Z,100771.92
2022-12-08T23:32:16.129Z,100766.84
2022-12-08T23:34:46.921Z,100776.61
2022-12-08T23:37:17.027Z,100773.75
2022-12-08T23:39:46.910Z,100769.41
2022-12-08T23:42:16.595Z,100771.83
2022-12-08T23:44:46.801Z,100766.06
2022-12-08T23:47:16.786Z,100767.08
2022-12-08T23:49:46.660Z,100759.66
2022-12-08T23:52:16.521Z,100762.16
2022-12-08T23:54:46.253Z,100764.95
2022-12-08T23:57:15.985Z,100757.62
2022-12-08T23:59:45.995Z,100759.12
